DTTG

Gabès Matmata International Airport

Gabès, Tunisia
METAR DTTG 162000Z 10011KT 9999 SCT020 28/21 Q1013 NOSIG
Observed Flight Rules
Aug-16 @ 20:00 UTC (10 minutes ago) Visual Flight Rules
Wind Visibility Clouds
100° at 11 knots 10,000+ meters
  • Scattered at 2,000' AGL
Temperatures Readings
Current 28°C / 82°F
Dewpoint 21°C / 70°F
Humidity 66%
Altimeter 29.91" Hg
Pressure 1013 hPa
Elevation 5
METAR DTTG 162000Z 10011KT 9999 SCT020 28/21 Q1013 NOSIG
Observed Flight Rules
Aug-16 @ 20:00 UTC
(10 minutes ago)
VFR
Wind Visibility
100° at 11 knots 10,000+ meters
Clouds
  • Scattered at 2,000' AGL
Temperature Dewpoint
28°C / 82°F 21°C / 70°F
Humidity Altimeter Pressure
66% 29.91" Hg 1013 hPa